Item Display Status Humidity-temperature Sensor

Elevation Above Sea Level: 3 m

 

Deployed Sensor

  • Serial Number: 20661549
  • NDBC Property Number: 45939
  • Start Date: 5/26/2023 (13:25:09 Z)
  • End Date: Currently Active
Relative Humidity [%]     6 entries per hour
Showing data from 7/15/2024 (17:00:00 Z) to 7/14/2024 (00:00:01 Z)
Previous Next [ Day | 3-Days | 7-Days ]
First Last
Prev [ Day | 3-Days | 7-Days ] Next
First Last

Start Time:     :
End Time:     :     
Time (in GMT) :00 :50 :40 :30 :20 :10
Previous Next [ Day | 3-Days | 7-Days ]
First Last
Prev [ Day | 3-Days | 7-Days ] Next
First Last


123 => good data
MM => data is determined as missing
-- => data not received/configured
Back to Top Back to Top
7/15/2024 17:00 to 16:10 77.90 79.91 79.89 80.96 77.84 78.36
7/15/2024 16:00 to 15:10 80.29 81.00 78.91 79.43 82.14 81.92
7/15/2024 15:00 to 14:10 80.23 79.45 78.12 80.58 80.37 78.50
7/15/2024 14:00 to 13:10 79.83 80.47 82.08 82.45 83.15 82.10
7/15/2024 13:00 to 12:10 83.41 83.61 80.88 81.02 82.22 82.77
7/15/2024 12:00 to 11:10 87.72 87.84 88.24 88.76 90.01 88.28
7/15/2024 11:00 to 10:10 87.39 86.83 86.67 89.63 91.03 92.16
7/15/2024 10:00 to 9:10 83.75 83.41 83.35 85.46 85.08 84.88
7/15/2024 09:00 to 8:10 84.32 83.63 84.62 83.37 82.00 82.99
7/15/2024 08:00 to 7:10 82.89 81.44 82.59 81.02 83.17 82.95
7/15/2024 07:00 to 6:10 81.76 81.36 81.08 81.22 82.37 80.80
7/15/2024 06:00 to 5:10 81.48 82.00 81.00 79.73 80.13 79.41
7/15/2024 05:00 to 4:10 79.17 79.55 80.74 78.08 78.04 79.41
7/15/2024 04:00 to 3:10 79.39 79.35 76.41 76.29 75.37 76.41
7/15/2024 03:00 to 2:10 77.10 78.02 77.74 77.80 78.44 77.80
7/15/2024 02:00 to 1:10 76.89 79.09 77.02 80.23 77.66 76.43
7/15/2024 01:00 to 0:10 75.99 76.09 77.82 77.68 78.48 77.30
7/15/2024 00:00 to 23:10 77.40 77.48 78.58 77.56 77.44 77.88
7/14/2024 23:00 to 22:10 77.90 78.62 79.97 79.25 82.28 81.40
7/14/2024 22:00 to 21:10 81.12 80.05 80.21 83.19 82.61 80.37
7/14/2024 21:00 to 20:10 81.30 81.38 79.41 78.64 81.54 80.58
7/14/2024 20:00 to 19:10 80.78 80.37 81.46 81.44 80.01 82.71
7/14/2024 19:00 to 18:10 81.08 80.76 80.64 81.74 81.50 81.02
7/14/2024 18:00 to 17:10 82.14 82.16 81.88 82.39 81.82 82.30
7/14/2024 17:00 to 16:10 83.59 84.50 86.43 89.63 88.24 87.96
7/14/2024 16:00 to 15:10 89.12 89.77 91.01 94.35 97.05 95.28
7/14/2024 15:00 to 14:10 90.87 91.82 92.02 92.56 94.19 96.69
7/14/2024 14:00 to 13:10 96.71 92.44 91.36 90.37 89.99 90.67
7/14/2024 13:00 to 12:10 92.66 93.43 91.94 92.14 93.41 92.02
7/14/2024 12:00 to 11:10 89.55 89.79 89.87 89.36 89.02 88.84
7/14/2024 11:00 to 10:10 88.30 88.40 88.52 88.06 87.65 89.00
7/14/2024 10:00 to 9:10 89.14 89.65 89.32 88.94 89.40 89.57
7/14/2024 09:00 to 8:10 90.55 89.85 89.73 89.06 89.47 89.83
7/14/2024 08:00 to 7:10 89.59 91.40 90.81 92.24 94.13 94.19
7/14/2024 07:00 to 6:10 90.61 90.63 91.17 92.56 92.98 95.28
7/14/2024 06:00 to 5:10 95.64 93.75 92.36 92.06 89.38 89.42
7/14/2024 05:00 to 4:10 89.99 90.35 90.17 91.74 91.09 90.19
7/14/2024 04:00 to 3:10 89.20 89.89 89.40 90.61 89.77 93.23
7/14/2024 03:00 to 2:10 93.05 85.62 85.06 83.17 83.09 83.51
7/14/2024 02:00 to 1:10 82.61 82.06 83.01 81.74 82.81 82.75
7/14/2024 01:00 to 0:10 81.52 81.84 82.35 82.22 81.76 84.30

 

 

 

Air Temperature [°C]     6 entries per hour
Showing data from 7/15/2024 (17:00:00 Z) to 7/14/2024 (00:00:01 Z)
Previous Next [ Day | 3-Days | 7-Days ]
First Last
Prev [ Day | 3-Days | 7-Days ] Next
First Last

Start Time:     :
End Time:     :     
Time (in GMT) :00 :50 :40 :30 :20 :10
Previous Next [ Day | 3-Days | 7-Days ]
First Last
Prev [ Day | 3-Days | 7-Days ] Next
First Last


123 => good data
MM => data is determined as missing
-- => data not received/configured
Back to Top Back to Top
7/15/2024 17:00 to 16:10 29.41 29.20 29.19 29.32 29.30 29.30
7/15/2024 16:00 to 15:10 29.31 29.28 29.37 29.38 29.23 29.11
7/15/2024 15:00 to 14:10 29.27 29.36 29.40 29.30 29.27 29.30
7/15/2024 14:00 to 13:10 29.27 29.40 29.18 29.35 29.25 29.31
7/15/2024 13:00 to 12:10 29.41 29.51 29.47 29.35 29.34 29.21
7/15/2024 12:00 to 11:10 29.12 28.91 28.65 28.70 27.98 28.98
7/15/2024 11:00 to 10:10 28.91 28.92 28.86 28.65 28.46 28.12
7/15/2024 10:00 to 9:10 29.49 29.48 29.24 29.34 29.41 29.36
7/15/2024 09:00 to 8:10 29.37 29.32 29.48 29.42 29.44 29.53
7/15/2024 08:00 to 7:10 29.45 29.41 29.56 29.41 29.56 29.58
7/15/2024 07:00 to 6:10 29.57 29.45 29.61 29.56 29.46 29.44
7/15/2024 06:00 to 5:10 29.44 29.52 29.53 29.47 29.65 29.60
7/15/2024 05:00 to 4:10 29.66 29.66 29.84 29.68 29.75 30.09
7/15/2024 04:00 to 3:10 29.96 29.85 30.21 30.16 30.17 30.10
7/15/2024 03:00 to 2:10 30.14 30.15 30.05 29.95 29.97 30.08
7/15/2024 02:00 to 1:10 29.98 30.07 29.94 29.93 30.05 29.96
7/15/2024 01:00 to 0:10 30.13 30.01 30.07 29.97 30.05 29.98
7/15/2024 00:00 to 23:10 29.86 29.97 29.92 29.97 29.89 29.91
7/14/2024 23:00 to 22:10 29.80 29.88 29.94 29.89 29.63 29.83
7/14/2024 22:00 to 21:10 29.67 29.83 30.05 29.59 29.86 29.77
7/14/2024 21:00 to 20:10 29.82 29.80 29.87 30.09 29.72 29.79
7/14/2024 20:00 to 19:10 29.53 29.78 29.87 29.69 29.76 29.58
7/14/2024 19:00 to 18:10 29.74 29.76 29.50 29.58 29.47 29.46
7/14/2024 18:00 to 17:10 29.42 29.30 29.22 29.26 29.29 29.29
7/14/2024 17:00 to 16:10 29.21 29.30 28.93 28.64 28.49 28.85
7/14/2024 16:00 to 15:10 28.89 28.81 28.21 27.90 27.66 27.56
7/14/2024 15:00 to 14:10 28.52 28.35 28.11 27.92 27.64 26.85
7/14/2024 14:00 to 13:10 27.28 28.21 28.38 28.37 28.29 28.18
7/14/2024 13:00 to 12:10 27.90 28.19 28.23 27.71 27.48 27.81
7/14/2024 12:00 to 11:10 28.77 28.80 28.81 28.69 28.73 28.72
7/14/2024 11:00 to 10:10 28.77 28.73 28.91 28.84 28.72 28.78
7/14/2024 10:00 to 9:10 28.72 28.73 28.80 28.86 28.75 28.70
7/14/2024 09:00 to 8:10 28.66 28.65 28.55 28.47 28.79 28.55
7/14/2024 08:00 to 7:10 28.43 28.33 28.00 27.82 27.77 27.83
7/14/2024 07:00 to 6:10 28.61 28.44 28.24 28.06 27.53 27.24
7/14/2024 06:00 to 5:10 27.42 28.11 28.59 28.65 28.67 28.64
7/14/2024 05:00 to 4:10 28.41 28.15 27.81 27.16 27.72 28.87
7/14/2024 04:00 to 3:10 28.77 28.63 28.65 28.62 28.58 27.93
7/14/2024 03:00 to 2:10 28.06 29.30 29.46 29.70 29.54 29.65
7/14/2024 02:00 to 1:10 29.96 29.75 29.70 29.86 29.70 29.62
7/14/2024 01:00 to 0:10 29.73 29.65 29.59 29.67 29.62 29.36